Latest Weather Observations for Toolara

IDQ60801

Issued at 11:05 pm EST Friday 31 October 2014 (issued every 30 minutes, with the page automatically refreshed every 10 minutes)

About weather observations | Map of weather stations | Latest weather observations for QLD | Other Formats
Station Details ID: 040555 Name: TOOLARA (KELLY) Lat: -25.97 Lon: 152.86 Height: 143.0 m
Data from the previous 72 hours. | See also: Recent months at Toolara
Date/Time
EST
Temp
°C
App
Temp
°C
Dew
Point
Rel
Hum
%
Delta-T
°C
Wind Press
QNH
hPa
Press
MSL
hPa
Rain
since 9 am
mm
Dir
 
Spd
km/h
Gust
km/h
Spd
kts
Gust
kts
31/11:00pm 20.7 22.1 18.6 88 1.3 - 9 11 5 6 - - -
31/10:30pm 20.9 22.2 18.5 86 1.5 - 9 11 5 6 - - -
31/10:00pm 20.9 - 18.3 85 1.6 - - - - - - - -
31/09:30pm 21.5 - 18.5 83 1.9 - - - - - - - -
31/09:00pm 21.3 - 18.3 83 1.9 - - - - - - - 0.0
31/08:30pm 21.7 - 18.3 81 2.1 - - - - - - - -
31/08:00pm 22.1 - 18.3 79 2.4 - - - - - - - -
31/07:30pm 22.3 - 18.9 81 2.2 - - - - - - - -
31/07:00pm 22.2 - 19.0 82 2.0 - - - - - - - -
31/06:30pm 22.2 - 18.6 80 2.3 - - - - - - - -
31/06:00pm 22.8 - 18.3 76 2.8 - - - - - - - -
31/05:30pm 23.4 - 18.3 73 3.2 - - - - - - - -
31/05:00pm 24.2 - 18.4 70 3.7 - - - - - - - -
31/04:30pm 24.9 - 18.3 66 4.2 - - - - - - - -
31/04:00pm 25.1 - 18.1 65 4.4 - - - - - - - -
31/03:30pm 25.7 - 18.1 63 4.8 - - - - - - - -
31/03:00pm 27.1 - 18.7 60 5.4 - - - - - - - 0.0
31/02:30pm 27.7 - 19.0 59 5.6 - - - - - - - -
31/02:00pm 28.6 - 19.2 56 6.1 - - - - - - - -
31/01:30pm 28.1 - 18.8 57 6.0 - - - - - - - -
31/01:00pm 28.1 - 18.8 57 6.0 - - - - - - - -
31/12:30pm 28.8 - 18.0 52 6.9 - - - - - - - -
31/12:00pm 30.2 - 18.6 49 7.5 - - - - - - - -
31/11:30am 30.0 - 18.4 49 7.5 - - - - - - - -
31/11:00am 28.5 - 17.7 52 6.9 - - - - - - - -
31/10:30am 29.6 - 19.6 55 6.6 - - - - - - - -
31/10:00am 27.9 - 19.9 61 5.3 - - - - - - - -
31/09:30am 25.6 - 20.2 72 3.5 - - - - - - - -
31/09:00am 24.8 - 19.8 74 3.2 - - - - - - - 0.0
31/08:30am 24.2 24.8 19.5 75 3.0 - 15 17 8 9 - - -
31/08:00am 23.5 - 20.8 85 1.8 - - - - - - - -
31/07:30am 22.4 - 20.9 91 1.0 - - - - - - - -
31/07:00am 21.9 - 21.4 97 0.3 - - - - - - - -
31/06:30am 21.0 - 20.8 99 0.1 - - - - - - - -
31/06:00am 20.5 23.2 20.3 99 0.1 - 6 7 3 4 - - -
31/05:30am 20.8 - 20.6 99 0.1 - - - - - - - -
31/05:00am 20.7 - 20.5 99 0.1 - - - - - - - -
31/04:30am 20.6 - 20.6 100 0.0 - - - - - - - -
31/04:00am 20.4 - 20.4 100 0.0 - - - - - - - -
31/03:30am 20.1 - 19.9 99 0.1 - - - - - - - -
31/03:00am 20.3 - 20.1 99 0.1 - - - - - - - 0.0
31/02:30am 20.7 - 20.4 98 0.2 - - - - - - - -
31/02:00am 20.9 - 20.6 98 0.2 - - - - - - - -
31/01:30am 20.9 - 20.4 97 0.3 - - - - - - - -
31/01:00am 20.9 - 20.1 95 0.5 - - - - - - - -
31/12:30am 21.1 - 20.4 96 0.5 - - - - - - - -
31/12:00am 20.9 23.6 20.2 96 0.5 - 6 6 3 3 - - -
 
Date/Time
EST
Temp
°C
App
Temp
°C
Dew
Point
Rel
Hum
%
Delta-T
°C
Wind Press
QNH
hPa
Press
MSL
hPa
Rain
since 9 am
mm
Dir
 
Spd
km/h
Gust
km/h
Spd
kts
Gust
kts
30/11:30pm 20.6 - 19.8 95 0.5 - - - - - - - -
30/11:00pm 21.1 - 19.9 93 0.8 - - - - - - - -
30/10:30pm 21.2 - 19.8 92 0.9 - - - - - - - -
30/10:00pm 21.3 - 19.8 91 1.0 - - - - - - - -
30/09:30pm 21.4 - 19.9 91 1.0 - - - - - - - -
30/09:00pm 21.1 - 19.6 91 1.0 - - - - - - - 0.0
30/08:30pm 21.0 - 19.5 91 1.0 - - - - - - - -
30/08:00pm 21.0 - 19.1 89 1.2 - - - - - - - -
30/07:30pm 21.1 - 18.7 86 1.5 - - - - - - - -
30/07:00pm 21.3 - 18.7 85 1.6 - - - - - - - -
30/06:30pm 21.6 - 18.4 82 2.0 - - - - - - - -
30/06:00pm 22.1 - 18.3 79 2.4 - - - - - - - -
30/05:30pm 22.7 - 18.3 76 2.8 - - - - - - - -
30/05:00pm 23.3 - 18.0 72 3.3 - - - - - - - -
30/04:30pm 24.2 - 18.2 69 3.8 - - - - - - - -
30/04:00pm 25.0 - 18.0 65 4.4 - - - - - - - -
30/03:30pm 25.6 - 17.8 62 4.9 - - - - - - - -
30/03:00pm 27.3 - 18.3 58 5.8 - - - - - - - 0.0
30/02:30pm 28.0 - 19.0 58 5.8 - - - - - - - -
30/02:00pm 28.7 - 18.8 55 6.4 - - - - - - - -
30/01:30pm 29.5 - 18.6 52 7.1 - - - - - - - -
30/01:00pm 29.7 - 19.1 53 6.9 - - - - - - - -
30/12:30pm 30.0 - 18.8 51 7.3 - - - - - - - -
30/12:00pm 29.0 - 18.1 51 7.0 - - - - - - - -
30/11:30am 28.5 - 18.0 53 6.7 - - - - - - - -
30/11:00am 29.2 - 18.9 53 6.7 - - - - - - - -
30/10:30am 29.2 - 19.2 54 6.5 - - - - - - - -
30/10:00am 26.6 - 18.5 61 5.2 - - - - - - - -
30/09:30am 26.3 - 19.2 65 4.6 - - - - - - - -
30/09:00am 25.9 - 20.0 70 3.9 - - - - - - - 0.0
30/08:30am 25.1 - 20.1 74 3.3 - - - - - - - -
30/08:00am 24.6 - 20.5 78 2.7 - - - - - - - -
30/07:30am 23.0 - 19.6 81 2.2 - - - - - - - -
30/07:00am 21.7 - 18.9 84 1.8 - - - - - - - -
30/06:30am 20.7 - 18.5 87 1.4 - - - - - - - -
30/06:00am 19.9 - 18.0 89 1.2 - - - - - - - -
30/05:30am 19.4 - 17.7 90 1.0 - - - - - - - -
30/05:00am 19.1 - 17.6 91 0.9 - - - - - - - -
30/04:30am 19.1 - 17.8 92 0.8 - - - - - - - -
30/04:00am 19.0 - 17.7 92 0.8 - - - - - - - -
30/03:30am 19.2 - 18.0 93 0.7 - - - - - - - -
30/03:00am 19.4 - 18.4 94 0.6 - - - - - - - 0.0
30/02:30am 19.6 - 19.1 97 0.3 - - - - - - - -
30/02:00am 19.6 - 19.4 99 0.1 - - - - - - - -
30/01:30am 20.1 - 19.9 99 0.1 - - - - - - - -
30/01:00am 20.3 - 20.1 99 0.1 - - - - - - - -
30/12:30am 20.2 - 20.0 99 0.1 - - - - - - - -
30/12:00am 20.4 - 19.9 97 0.3 - - - - - - - -
 
Date/Time
EST
Temp
°C
App
Temp
°C
Dew
Point
Rel
Hum
%
Delta-T
°C
Wind Press
QNH
hPa
Press
MSL
hPa
Rain
since 9 am
mm
Dir
 
Spd
km/h
Gust
km/h
Spd
kts
Gust
kts
29/11:30pm 20.4 - 19.6 95 0.5 - - - - - - - -
29/11:00pm 20.7 - 19.5 93 0.8 - - - - - - - -
29/10:30pm 21.1 - 19.7 92 0.9 - - - - - - - -
29/10:00pm 21.1 - 19.6 91 1.0 - - - - - - - -
29/09:30pm 20.9 - 19.4 91 1.0 - - - - - - - -
29/09:00pm 20.8 - 19.1 90 1.1 - - - - - - - 0.0
29/08:30pm 21.0 - 18.9 88 1.3 - - - - - - - -
29/08:00pm 21.5 - 18.9 85 1.6 - - - - - - - -
29/07:30pm 22.0 - 19.2 84 1.8 - - - - - - - -
29/07:00pm 22.0 - 19.0 83 1.9 - - - - - - - -
29/06:30pm 21.9 - 18.5 81 2.1 - - - - - - - -
29/06:00pm 22.3 - 18.3 78 2.5 - - - - - - - -
29/05:30pm 22.9 - 18.4 76 2.8 - - - - - - - -
29/05:00pm 23.4 - 18.3 73 3.2 - - - - - - - -
29/04:30pm 24.0 - 18.0 69 3.8 - - - - - - - -
29/04:00pm 24.5 - 18.0 67 4.1 - - - - - - - -
29/03:30pm 25.1 - 17.8 64 4.6 - - - - - - - -
29/03:00pm 25.8 - 18.0 62 4.9 - - - - - - - 0.0
29/02:30pm 26.9 - 17.4 56 6.0 - - - - - - - -
29/02:00pm 28.7 - 18.2 53 6.7 - - - - - - - -
29/01:30pm 29.2 - 17.7 50 7.3 - - - - - - - -
29/01:00pm 30.0 - 16.8 45 8.3 - - - - - - - -
29/12:30pm 30.8 - 17.1 43 8.7 - - - - - - - -
29/12:00pm 31.4 - 16.6 41 9.4 - - - - - - - -
29/11:30am 30.4 - 18.5 49 7.7 - - - - - - - -
29/11:00am 31.2 - 19.9 51 7.5 - - - - - - - -
29/10:30am 29.9 - 19.9 55 6.6 - - - - - - - -
29/10:00am 29.3 - 20.5 59 5.8 - - - - - - - -
29/09:30am 28.2 - 21.2 65 4.7 - - - - - - - -
29/09:00am 26.8 - 22.2 76 3.1 - - - - - - - 0.0
29/08:30am 24.8 - 21.5 82 2.2 - - - - - - - -
29/08:00am 23.7 - 21.6 88 1.4 - - - - - - - -
29/07:30am 21.8 - 21.5 98 0.2 - - - - - - - -
29/07:00am 20.7 - 20.7 100 0.0 - - - - - - - -
29/06:30am 21.0 - 21.0 100 0.0 - - - - - - - -
29/06:00am 20.7 - 20.7 100 0.0 - - - - - - - -
29/05:30am 20.0 - 20.0 100 0.0 - - - - - - - -
29/05:00am 20.1 - 20.1 100 0.0 - - - - - - - -
29/04:30am 20.3 - 20.3 100 0.0 - - - - - - - -
29/04:00am 20.2 - 20.2 100 0.0 - - - - - - - -
29/03:30am 20.5 - 20.5 100 0.0 - - - - - - - -
29/03:00am 20.5 - 20.5 100 0.0 - - - - - - - 0.0
29/02:30am 20.7 - 20.7 100 0.0 - - - - - - - -
29/02:00am 20.5 - 20.5 100 0.0 - - - - - - - -
29/01:30am 19.9 - 19.9 100 0.0 - - - - - - - -
29/01:00am 20.5 - 20.5 100 0.0 - - - - - - - -
29/12:30am 21.0 - 21.0 100 0.0 - - - - - - - -
29/12:00am 21.2 - 21.0 99 0.1 - - - - - - - -
 
Date/Time
EST
Temp
°C
App
Temp
°C
Dew
Point
Rel
Hum
%
Delta-T
°C
Wind Press
QNH
hPa
Press
MSL
hPa
Rain
since 9 am
mm
Dir
 
Spd
km/h
Gust
km/h
Spd
kts
Gust
kts
28/11:30pm 21.2 - 20.9 98 0.2 - - - - - - - -

Other Formats:

Comma delimited format used in spreadsheet applications
http://www.bom.gov.au/fwo/IDQ60801/IDQ60801.94558.axf

JavaScript Object Notation format (JSON) in row-major order
http://www.bom.gov.au/fwo/IDQ60801/IDQ60801.94558.json